»·PEaware :: USC81 KSEZ-KSAN

USC81 :: KSEZ-KSAN

FLIGHT INFORMATION

Flight Status: Arrived
Operator: Unknown
More flights by this operator :: More flights under this callsign
Pilot: Andy P. (22680)
Aircraft: GATES LEARJET LEARJET 35/36
(LJ35)
More flights by this aircraft type
Origin: KSEZ Sedona
United States
Destination: KSAN San Diego Intl-Lindbergh
United States
More flights between these airports :: More routes between these airports
Route: DRK PKE LUCKI1
File this flight plan on PilotEdge
Remarks:
Altitude:
(Current/Filed)
34,000ft
Speed:
(Current/Filed)
465kts
Departed: 28-Oct-20 03:30 PM
Arrived: 28-Oct-20 04:19 PM
Distance/Time
Traveled:
298nm/0:49
Distance/Time
To Go:
Arrived

Flight Plot

Page will automatically refresh every two minutes.

Flight plan parsing failed; only flown route is shown


Map Options




Map Legend


Flown Route
Filed Route
Departure Airport
Arrival Airport
Navaid (VOR, NDB)
Fix

Horizontal Profiles

Position Reports

Time Latitude Longitude Heading Altitude Ground
Speed
28-Oct-20 15:18 34.849279 -111.791580 112 4777ft 0kts
28-Oct-20 15:19 34.849279 -111.791580 112 4777ft 0kts
28-Oct-20 15:20 34.849279 -111.791580 112 4777ft 0kts
28-Oct-20 15:21 34.849279 -111.791580 112 4777ft 0kts
28-Oct-20 15:22 34.849279 -111.791580 112 4777ft 0kts
28-Oct-20 15:23 34.849279 -111.791580 112 4777ft 0kts
28-Oct-20 15:24 34.849279 -111.791580 112 4777ft 0kts
28-Oct-20 15:25 34.849279 -111.791580 112 4777ft 0kts
28-Oct-20 15:26 34.848371 -111.789954 54 4777ft 5kts
28-Oct-20 15:27 34.850973 -111.786707 43 4777ft 18kts
28-Oct-20 15:28 34.853464 -111.782416 184 4777ft 6kts
28-Oct-20 15:29 34.838404 -111.801829 234 4850ft 180kts
28-Oct-20 15:30 34.830152 -111.879217 263 7872ft 256kts
28-Oct-20 15:31 34.812273 -111.967078 259 11712ft 285kts
28-Oct-20 15:32 34.791048 -112.064685 259 15040ft 301kts
28-Oct-20 15:33 34.768958 -112.169232 259 16509ft 360kts
28-Oct-20 15:34 34.741575 -112.298151 258 16490ft 413kts
28-Oct-20 15:35 34.712291 -112.435387 258 16491ft 419kts
28-Oct-20 15:36 34.680373 -112.569082 254 16942ft 415kts
28-Oct-20 15:37 34.644644 -112.701626 255 19345ft 393kts
28-Oct-20 15:38 34.612956 -112.820745 255 23096ft 350kts
28-Oct-20 15:39 34.584397 -112.928196 255 26203ft 330kts
28-Oct-20 15:40 34.556139 -113.034165 254 28586ft 329kts
28-Oct-20 15:41 34.526162 -113.146198 253 29603ft 366kts
28-Oct-20 15:42 34.493318 -113.268281 253 30619ft 394kts
28-Oct-20 15:43 34.458282 -113.397900 252 31624ft 413kts
28-Oct-20 15:44 34.422040 -113.531312 252 32936ft 415kts
28-Oct-20 15:45 34.385877 -113.663807 252 34022ft 420kts
28-Oct-20 15:46 34.348025 -113.801835 251 34062ft 443kts
28-Oct-20 15:47 34.308397 -113.945597 251 34056ft 453kts
28-Oct-20 15:48 34.268180 -114.090728 251 34058ft 458kts
28-Oct-20 15:49 34.227380 -114.237186 251 34055ft 460kts
28-Oct-20 15:50 34.186374 -114.383611 251 34051ft 458kts
28-Oct-20 15:51 34.145434 -114.529051 251 34036ft 458kts
28-Oct-20 15:52 34.102860 -114.674066 247 34045ft 458kts
28-Oct-20 15:53 34.045124 -114.811445 242 34048ft 458kts
28-Oct-20 15:54 33.985067 -114.946901 242 34047ft 458kts
28-Oct-20 15:55 33.924768 -115.082112 242 34047ft 457kts
28-Oct-20 15:56 33.864256 -115.216952 242 34050ft 458kts
28-Oct-20 15:57 33.803624 -115.351564 242 34053ft 458kts
28-Oct-20 15:58 33.742852 -115.485975 242 34057ft 458kts
28-Oct-20 15:59 33.682938 -115.620658 243 32125ft 452kts
28-Oct-20 16:00 33.623545 -115.752884 240 29685ft 451kts
28-Oct-20 16:01 33.553451 -115.878620 236 27281ft 457kts
28-Oct-20 16:02 33.480357 -116.004686 236 24902ft 463kts
28-Oct-20 16:03 33.406459 -116.131934 236 22577ft 462kts
28-Oct-20 16:04 33.327557 -116.250904 220 20294ft 459kts
28-Oct-20 16:05 33.217710 -116.320324 207 18074ft 438kts
28-Oct-20 16:06 33.108738 -116.384127 207 15906ft 439kts
28-Oct-20 16:07 33.009246 -116.445002 213 13877ft 345kts
28-Oct-20 16:08 32.934317 -116.516232 221 12178ft 344kts
28-Oct-20 16:09 32.873402 -116.596777 242 10584ft 310kts
28-Oct-20 16:11 32.838751 -116.684614 250 9142ft 286kts
28-Oct-20 16:12 32.813411 -116.763718 251 8005ft 280kts
28-Oct-20 16:13 32.788248 -116.847088 252 6753ft 262kts
28-Oct-20 16:14 32.763904 -116.926484 248 5170ft 244kts
28-Oct-20 16:15 32.735854 -116.998194 244 3495ft 235kts
28-Oct-20 16:16 32.709651 -117.064245 256 2608ft 213kts
28-Oct-20 16:17 32.718072 -117.125612 286 1314ft 150kts
28-Oct-20 16:18 32.728670 -117.169088 286 288ft 130kts
28-Oct-20 16:19 32.734444 -117.194379 254 18ft 15kts

Navigation Log

Ident Type
Flight plan parsing failed, navigation log unavailable